Time,TemperatureF,DewpointF,PressureIn,WindDirection,WindDirectionDegrees,WindSpeedMPH,WindSpeedGustMPH,Humidity,HourlyPrecipIn,Conditions,Clouds,dailyrainin,SoftwareType,DateUTC
2013-01-24 00:00:00,30.7,28.2,29.83,West,279,3.6,4.9,90,0.00,,---,0.00,VWS V14.01,2013-01-23 23:00:00,
2013-01-24 00:05:00,30.9,28.3,29.83,West,279,3.1,3.6,90,0.00,,---,0.00,VWS V14.01,2013-01-23 23:05:00,
2013-01-24 00:10:00,30.9,28.3,29.83,West,279,3.6,4.9,90,0.00,,---,0.00,VWS V14.01,2013-01-23 23:10:00,
2013-01-24 00:15:00,30.7,28.2,29.83,WNW,283,3.1,4.5,90,0.00,,---,0.00,VWS V14.01,2013-01-23 23:15:00,
2013-01-24 00:20:00,30.6,28.0,29.83,West,279,5.4,5.4,90,0.00,,---,0.00,VWS V14.01,2013-01-23 23:20:00,
2013-01-24 00:25:00,30.4,27.8,29.80,West,281,4.0,4.0,90,0.00,,---,0.00,VWS V14.01,2013-01-23 23:25:00,
2013-01-24 00:30:00,30.0,27.2,29.80,WNW,293,4.0,4.0,89,0.00,,---,0.00,VWS V14.01,2013-01-23 23:30:00,
2013-01-24 00:35:00,30.2,27.6,29.80,West,271,2.7,2.7,90,0.00,,---,0.00,VWS V14.01,2013-01-23 23:35:00,
2013-01-24 00:40:00,30.0,27.5,29.80,West,272,4.9,4.9,90,0.00,,---,0.00,VWS V14.01,2013-01-23 23:40:00,
2013-01-24 00:45:00,29.8,27.3,29.80,NNW,340,3.6,4.5,90,0.00,,---,0.00,VWS V14.01,2013-01-23 23:45:00,
2013-01-24 00:50:00,29.7,27.1,29.80,NNW,344,6.3,6.7,90,0.00,,---,0.00,VWS V14.01,2013-01-23 23:50:00,
2013-01-24 00:55:00,29.5,26.9,29.80,NNW,331,3.1,3.1,90,0.00,,---,0.00,VWS V14.01,2013-01-23 23:55:00,
2013-01-24 01:00:00,29.5,26.9,29.80,North,356,2.7,3.1,90,0.00,,---,0.00,VWS V14.01,2013-01-24 00:00:00,
2013-01-24 01:05:00,29.5,27.2,29.80,NNW,334,4.0,4.0,91,0.00,,---,0.00,VWS V14.01,2013-01-24 00:05:00,
2013-01-24 01:10:00,29.5,27.2,29.80,NNW,340,0.0,0.0,91,0.00,,---,0.00,VWS V14.01,2013-01-24 00:10:00,
2013-01-24 01:15:00,29.5,27.2,29.80,NNW,332,4.0,4.0,91,0.00,,---,0.00,VWS V14.01,2013-01-24 00:15:00,
2013-01-24 01:20:00,29.7,27.4,29.80,West,280,4.9,5.8,91,0.00,,---,0.00,VWS V14.01,2013-01-24 00:20:00,
2013-01-24 01:25:00,29.8,27.8,29.80,West,278,0.0,3.1,92,0.00,,---,0.00,VWS V14.01,2013-01-24 00:25:00,
2013-01-24 01:30:00,29.7,27.6,29.80,SSE,157,4.0,4.9,92,0.00,,---,0.00,VWS V14.01,2013-01-24 00:30:00,
2013-01-24 01:35:00,29.7,27.6,29.80,NW,320,2.7,3.1,92,0.00,,---,0.00,VWS V14.01,2013-01-24 00:35:00,
2013-01-24 01:40:00,29.5,27.5,29.80,NW,321,2.7,2.7,92,0.00,,---,0.00,VWS V14.01,2013-01-24 00:40:00,
2013-01-24 01:45:00,29.5,27.5,29.80,NNW,342,4.9,5.8,92,0.00,,---,0.00,VWS V14.01,2013-01-24 00:45:00,
2013-01-24 01:50:00,29.5,27.5,29.80,North,356,6.3,6.3,92,0.00,,---,0.00,VWS V14.01,2013-01-24 00:50:00,
2013-01-24 01:55:00,29.5,27.5,29.80,NE,40,0.0,3.6,92,0.00,,---,0.00,VWS V14.01,2013-01-24 00:55:00,
2013-01-24 02:00:00,29.7,27.6,29.80,NE,40,0.0,2.7,92,0.00,,---,0.00,VWS V14.01,2013-01-24 01:00:00,
2013-01-24 02:05:00,29.7,27.9,29.80,NE,39,3.1,3.6,93,0.00,,---,0.00,VWS V14.01,2013-01-24 01:05:00,
2013-01-24 02:10:00,29.5,27.5,29.80,NNE,28,3.6,3.6,92,0.00,,---,0.00,VWS V14.01,2013-01-24 01:10:00,
2013-01-24 02:15:00,29.5,27.5,29.80,NNW,339,3.6,4.5,92,0.00,,---,0.00,VWS V14.01,2013-01-24 01:15:00,
2013-01-24 02:20:00,29.5,27.7,29.80,West,277,4.5,4.9,93,0.00,,---,0.00,VWS V14.01,2013-01-24 01:20:00,
2013-01-24 02:25:00,29.8,28.1,29.80,West,277,4.9,5.4,93,0.00,,---,0.00,VWS V14.01,2013-01-24 01:25:00,
2013-01-24 02:30:00,30.2,28.4,29.80,WNW,297,2.7,4.0,93,0.00,,---,0.00,VWS V14.01,2013-01-24 01:30:00,
2013-01-24 02:35:00,30.2,28.4,29.80,WNW,295,3.6,4.9,93,0.00,,---,0.00,VWS V14.01,2013-01-24 01:35:00,
2013-01-24 02:40:00,30.2,28.4,29.80,WNW,293,6.7,6.7,93,0.00,,---,0.00,VWS V14.01,2013-01-24 01:40:00,
2013-01-24 02:45:00,30.4,28.6,29.80,WNW,282,4.5,5.8,93,0.00,,---,0.00,VWS V14.01,2013-01-24 01:45:00,
2013-01-24 02:50:00,30.4,28.6,29.80,WNW,284,4.5,4.9,93,0.00,,---,0.00,VWS V14.01,2013-01-24 01:50:00,
2013-01-24 02:55:00,30.6,28.8,29.80,West,281,4.5,5.8,93,0.00,,---,0.00,VWS V14.01,2013-01-24 01:55:00,
2013-01-24 03:00:00,30.4,28.6,29.80,WNW,290,4.0,4.0,93,0.00,,---,0.00,VWS V14.01,2013-01-24 02:00:00,
2013-01-24 03:05:00,30.2,28.4,29.80,WNW,303,4.9,5.8,93,0.00,,---,0.00,VWS V14.01,2013-01-24 02:05:00,
2013-01-24 03:10:00,30.2,28.4,29.80,NNW,336,4.9,4.9,93,0.00,,---,0.00,VWS V14.01,2013-01-24 02:10:00,
2013-01-24 03:15:00,29.8,28.1,29.80,NNW,339,3.1,6.7,93,0.00,,---,0.00,VWS V14.01,2013-01-24 02:15:00,
2013-01-24 03:20:00,29.7,27.9,29.80,ESE,114,3.1,6.7,93,0.00,,---,0.00,VWS V14.01,2013-01-24 02:20:00,
2013-01-24 03:25:00,29.7,27.9,29.80,NNW,334,6.7,6.7,93,0.00,,---,0.00,VWS V14.01,2013-01-24 02:25:00,
2013-01-24 03:30:00,29.5,27.7,29.80,NW,306,4.5,4.5,93,0.00,,---,0.00,VWS V14.01,2013-01-24 02:30:00,
2013-01-24 03:35:00,29.5,27.7,29.80,NNE,12,4.0,4.9,93,0.00,,---,0.00,VWS V14.01,2013-01-24 02:35:00,
2013-01-24 03:40:00,29.5,27.7,29.80,NNW,337,3.1,4.9,93,0.00,,---,0.00,VWS V14.01,2013-01-24 02:40:00,
2013-01-24 03:45:00,29.5,27.7,29.80,NNW,335,2.7,4.9,93,0.00,,---,0.00,VWS V14.01,2013-01-24 02:45:00,
2013-01-24 03:50:00,29.5,28.0,29.80,NNW,343,5.4,6.3,94,0.00,,---,0.00,VWS V14.01,2013-01-24 02:50:00,
2013-01-24 03:55:00,29.5,28.0,29.77,North,351,4.5,6.3,94,0.00,,---,0.00,VWS V14.01,2013-01-24 02:55:00,
2013-01-24 04:00:00,29.5,28.0,29.77,WNW,300,4.9,6.3,94,0.00,,---,0.00,VWS V14.01,2013-01-24 03:00:00,
2013-01-24 04:05:00,29.7,28.1,29.77,NW,319,4.0,6.3,94,0.00,,---,0.00,VWS V14.01,2013-01-24 03:05:00,
2013-01-24 04:10:00,29.7,28.1,29.77,NNW,346,4.5,4.9,94,0.00,,---,0.00,VWS V14.01,2013-01-24 03:10:00,
2013-01-24 04:15:00,29.5,28.0,29.77,NNW,329,7.4,7.4,94,0.00,,---,0.00,VWS V14.01,2013-01-24 03:15:00,
2013-01-24 04:21:00,29.5,28.2,29.77,North,356,6.9,6.9,95,0.00,,---,0.00,VWS V14.01,2013-01-24 03:21:00,
2013-01-24 04:26:00,29.5,28.2,29.77,NNW,341,4.5,7.4,95,0.00,,---,0.00,VWS V14.01,2013-01-24 03:26:00,
2013-01-24 04:31:00,29.3,28.0,29.77,North,351,4.9,6.3,95,0.00,,---,0.00,VWS V14.01,2013-01-24 03:31:00,
2013-01-24 04:36:00,29.3,28.3,29.77,NNW,330,0.0,3.6,96,0.00,,---,0.00,VWS V14.01,2013-01-24 03:36:00,
2013-01-24 04:41:00,29.5,28.5,29.77,NE,47,3.6,3.6,96,0.00,,---,0.00,VWS V14.01,2013-01-24 03:41:00,
2013-01-24 04:46:00,29.3,28.3,29.77,NNW,340,5.8,5.8,96,0.00,,---,0.00,VWS V14.01,2013-01-24 03:46:00,
2013-01-24 04:51:00,29.5,28.5,29.77,NNW,340,3.1,4.5,96,0.00,,---,0.00,VWS V14.01,2013-01-24 03:51:00,
2013-01-24 04:56:00,29.5,28.7,29.77,NW,322,4.0,4.0,97,0.00,,---,0.00,VWS V14.01,2013-01-24 03:56:00,
2013-01-24 05:01:00,29.7,28.9,29.77,NNW,339,0.0,3.1,97,0.00,,---,0.00,VWS V14.01,2013-01-24 04:01:00,
2013-01-24 05:06:00,29.7,28.9,29.77,NW,312,0.0,5.4,97,0.00,,---,0.00,VWS V14.01,2013-01-24 04:06:00,
2013-01-24 05:11:00,29.7,28.9,29.77,NNW,330,3.1,5.8,97,0.00,,---,0.00,VWS V14.01,2013-01-24 04:11:00,
2013-01-24 05:16:00,29.8,29.1,29.77,SE,131,2.7,4.9,97,0.00,,---,0.00,VWS V14.01,2013-01-24 04:16:00,
2013-01-24 05:21:00,29.8,29.1,29.77,NNW,343,5.4,6.9,97,0.00,,---,0.00,VWS V14.01,2013-01-24 04:21:00,
2013-01-24 05:26:00,29.8,29.1,29.77,East,85,4.5,4.9,97,0.00,,---,0.00,VWS V14.01,2013-01-24 04:26:00,
2013-01-24 05:31:00,30.0,29.3,29.77,SSE,152,0.0,3.6,97,0.00,,---,0.00,VWS V14.01,2013-01-24 04:31:00,
2013-01-24 05:36:00,30.0,29.3,29.77,SE,129,4.9,4.9,97,0.00,,---,0.00,VWS V14.01,2013-01-24 04:36:00,
2013-01-24 05:41:00,30.0,29.3,29.77,North,356,4.0,6.3,97,0.00,,---,0.00,VWS V14.01,2013-01-24 04:41:00,
2013-01-24 05:46:00,30.0,29.3,29.77,NNW,331,0.0,5.4,97,0.00,,---,0.00,VWS V14.01,2013-01-24 04:46:00,
2013-01-24 05:51:00,30.0,29.3,29.77,NNW,338,6.3,6.9,97,0.00,,---,0.00,VWS V14.01,2013-01-24 04:51:00,
2013-01-24 05:56:00,30.0,29.3,29.77,NW,318,0.0,4.5,97,0.00,,---,0.00,VWS V14.01,2013-01-24 04:56:00,
2013-01-24 06:00:00,30.0,29.3,29.77,NNW,343,3.6,3.6,97,0.00,,---,0.00,VWS V14.01,2013-01-24 05:00:00,
2013-01-24 06:02:00,30.0,29.3,29.77,ESE,109,5.4,6.3,97,0.00,,---,0.00,VWS V14.01,2013-01-24 05:02:00,
2013-01-24 06:03:00,30.0,29.3,29.77,ESE,109,0.0,0.0,97,0.00,,---,0.00,VWS V14.01,2013-01-24 05:03:00,
2013-01-24 06:08:00,30.0,29.3,29.77,NNW,341,4.5,4.5,97,0.00,,---,0.00,VWS V14.01,2013-01-24 05:08:00,
2013-01-24 06:13:00,29.8,29.1,29.77,NNW,335,4.5,5.4,97,0.00,,---,0.00,VWS V14.01,2013-01-24 05:13:00,
2013-01-24 06:18:00,29.8,29.1,29.77,SE,128,4.5,5.4,97,0.00,,---,0.00,VWS V14.01,2013-01-24 05:18:00,
2013-01-24 06:23:00,29.8,29.1,29.77,NNW,338,6.3,6.3,97,0.00,,---,0.00,VWS V14.01,2013-01-24 05:23:00,
2013-01-24 06:28:00,29.8,29.1,29.77,ESE,111,3.1,3.1,97,0.00,,---,0.00,VWS V14.01,2013-01-24 05:28:00,
2013-01-24 06:33:00,29.7,28.9,29.77,NNW,342,0.0,3.1,97,0.00,,---,0.00,VWS V14.01,2013-01-24 05:33:00,
2013-01-24 06:38:00,29.7,28.9,29.77,NW,306,4.0,4.0,97,0.00,,---,0.00,VWS V14.01,2013-01-24 05:38:00,
2013-01-24 06:43:00,29.7,28.9,29.77,SSE,158,0.0,4.5,97,0.00,,---,0.00,VWS V14.01,2013-01-24 05:43:00,
2013-01-24 06:48:00,29.7,28.9,29.77,East,91,0.0,4.0,97,0.00,,---,0.00,VWS V14.01,2013-01-24 05:48:00,
2013-01-24 06:53:00,29.7,28.9,29.80,SE,139,0.0,4.5,97,0.00,,---,0.00,VWS V14.01,2013-01-24 05:53:00,
2013-01-24 06:58:00,29.7,28.9,29.80,NW,318,4.0,4.0,97,0.00,,---,0.00,VWS V14.01,2013-01-24 05:58:00,
2013-01-24 07:03:00,29.7,28.9,29.80,NW,325,3.6,3.6,97,0.00,,---,0.00,VWS V14.01,2013-01-24 06:03:00,
2013-01-24 07:08:00,29.7,28.9,29.80,NNW,329,5.8,5.8,97,0.00,,---,0.00,VWS V14.01,2013-01-24 06:08:00,
2013-01-24 07:13:00,29.7,28.9,29.80,SE,124,4.5,5.8,97,0.00,,---,0.00,VWS V14.01,2013-01-24 06:13:00,
2013-01-24 07:18:00,29.7,28.9,29.80,NW,316,3.6,3.6,97,0.00,,---,0.00,VWS V14.01,2013-01-24 06:18:00,
2013-01-24 07:23:00,29.7,28.9,29.80,SE,133,4.5,4.5,97,0.00,,---,0.00,VWS V14.01,2013-01-24 06:23:00,
2013-01-24 07:28:00,29.7,28.9,29.80,South,169,0.0,0.0,97,0.00,,---,0.00,VWS V14.01,2013-01-24 06:28:00,
2013-01-24 07:33:00,29.7,28.9,29.80,WNW,301,2.7,3.6,97,0.00,,---,0.00,VWS V14.01,2013-01-24 06:33:00,
2013-01-24 07:38:00,29.7,28.9,29.80,NW,310,5.4,5.4,97,0.00,,---,0.00,VWS V14.01,2013-01-24 06:38:00,
2013-01-24 07:43:00,29.7,28.9,29.80,South,171,3.6,5.4,97,0.00,,---,0.00,VWS V14.01,2013-01-24 06:43:00,
2013-01-24 07:48:00,29.7,28.9,29.80,ESE,121,4.9,6.7,97,0.00,,---,0.00,VWS V14.01,2013-01-24 06:48:00,
2013-01-24 07:53:00,29.7,28.9,29.80,East,82,5.4,5.8,97,0.00,,---,0.00,VWS V14.01,2013-01-24 06:53:00,
2013-01-24 07:58:00,29.7,28.9,29.80,ESE,114,6.9,6.9,97,0.00,,---,0.00,VWS V14.01,2013-01-24 06:58:00,
2013-01-24 08:03:00,29.7,28.9,29.80,SSE,167,4.0,4.0,97,0.00,,---,0.00,VWS V14.01,2013-01-24 07:03:00,
2013-01-24 08:08:00,29.7,28.9,29.80,NW,323,0.0,0.0,97,0.00,,---,0.00,VWS V14.01,2013-01-24 07:08:00,
2013-01-24 08:13:00,29.7,28.9,29.80,WSW,258,4.5,6.3,97,0.00,,---,0.00,VWS V14.01,2013-01-24 07:13:00,
2013-01-24 08:18:00,29.7,28.9,29.80,NNW,330,4.0,5.8,97,0.00,,---,0.00,VWS V14.01,2013-01-24 07:18:00,
2013-01-24 08:23:00,29.3,28.6,29.80,NNW,344,4.9,4.9,97,0.00,,---,0.00,VWS V14.01,2013-01-24 07:23:00,
2013-01-24 08:28:00,29.3,28.6,29.80,North,351,3.6,3.6,97,0.00,,---,0.00,VWS V14.01,2013-01-24 07:28:00,
2013-01-24 08:33:00,29.1,28.4,29.80,North,351,4.5,5.8,97,0.00,,---,0.00,VWS V14.01,2013-01-24 07:33:00,
2013-01-24 08:38:00,29.1,28.4,29.80,NNW,337,4.0,5.4,97,0.00,,---,0.00,VWS V14.01,2013-01-24 07:38:00,
2013-01-24 08:43:00,28.9,28.2,29.80,North,351,4.0,4.9,97,0.00,,---,0.00,VWS V14.01,2013-01-24 07:43:00,
2013-01-24 08:48:00,28.9,28.2,29.80,NNW,347,3.6,4.5,97,0.00,,---,0.00,VWS V14.01,2013-01-24 07:48:00,
2013-01-24 08:53:00,28.9,28.2,29.80,NNW,343,4.0,5.8,97,0.00,,---,0.00,VWS V14.01,2013-01-24 07:53:00,
2013-01-24 08:58:00,28.9,28.2,29.80,WNW,302,2.7,4.0,97,0.00,,---,0.00,VWS V14.01,2013-01-24 07:58:00,
2013-01-24 09:04:00,28.9,28.2,29.80,NW,324,3.6,4.9,97,0.00,,---,0.00,VWS V14.01,2013-01-24 08:04:00,
2013-01-24 09:09:00,28.9,28.2,29.80,North,3,5.4,5.8,97,0.00,,---,0.00,VWS V14.01,2013-01-24 08:09:00,
2013-01-24 09:14:00,28.9,28.2,29.80,North,351,2.7,5.4,97,0.00,,---,0.00,VWS V14.01,2013-01-24 08:14:00,
2013-01-24 09:19:00,29.1,28.4,29.80,NNW,347,0.0,5.4,97,0.00,,---,0.00,VWS V14.01,2013-01-24 08:19:00,
2013-01-24 09:24:00,28.9,28.2,29.80,North,0,3.1,5.8,97,0.00,,---,0.00,VWS V14.01,2013-01-24 08:24:00,
2013-01-24 09:29:00,28.9,28.2,29.80,North,351,5.4,7.4,97,0.00,,---,0.00,VWS V14.01,2013-01-24 08:29:00,
2013-01-24 09:34:00,28.8,28.0,29.80,NNW,329,5.4,6.9,97,0.00,,---,0.00,VWS V14.01,2013-01-24 08:34:00,
2013-01-24 09:39:00,28.8,28.0,29.80,North,351,4.9,7.4,97,0.00,,---,0.00,VWS V14.01,2013-01-24 08:39:00,
2013-01-24 09:44:00,28.9,28.2,29.80,NNW,329,6.7,6.7,97,0.00,,---,0.00,VWS V14.01,2013-01-24 08:44:00,
2013-01-24 09:49:00,28.9,28.2,29.80,NNW,343,5.4,5.8,97,0.00,,---,0.00,VWS V14.01,2013-01-24 08:49:00,
2013-01-24 09:54:00,28.9,28.2,29.80,NNW,336,4.5,5.8,97,0.00,,---,0.00,VWS V14.01,2013-01-24 08:54:00,
2013-01-24 09:59:00,28.9,28.2,29.80,NNW,335,2.7,4.9,97,0.00,,---,0.00,VWS V14.01,2013-01-24 08:59:00,
2013-01-24 10:04:00,28.9,28.2,29.80,NNW,337,4.9,5.8,97,0.00,,---,0.00,VWS V14.01,2013-01-24 09:04:00,
2013-01-24 10:09:00,28.9,28.2,29.80,North,351,4.5,4.5,97,0.00,,---,0.00,VWS V14.01,2013-01-24 09:09:00,
2013-01-24 10:14:00,28.9,28.2,29.80,NW,307,5.4,5.8,97,0.00,,---,0.00,VWS V14.01,2013-01-24 09:14:00,
2013-01-24 10:19:00,28.9,28.2,29.80,North,351,3.6,5.8,97,0.00,,---,0.00,VWS V14.01,2013-01-24 09:19:00,
2013-01-24 10:24:00,28.9,28.2,29.80,NNW,334,5.8,5.8,97,0.00,,---,0.00,VWS V14.01,2013-01-24 09:24:00,
2013-01-24 10:29:00,28.9,28.2,29.80,North,351,5.4,7.4,97,0.00,,---,0.00,VWS V14.01,2013-01-24 09:29:00,
2013-01-24 10:34:00,29.1,28.4,29.80,WNW,298,0.0,5.8,97,0.00,,---,0.00,VWS V14.01,2013-01-24 09:34:00,
2013-01-24 10:39:00,29.1,28.4,29.80,NNW,335,8.7,8.7,97,0.00,,---,0.00,VWS V14.01,2013-01-24 09:39:00,
2013-01-24 10:44:00,29.1,28.4,29.80,North,351,6.3,7.8,97,0.00,,---,0.00,VWS V14.01,2013-01-24 09:44:00,
2013-01-24 10:49:00,28.9,28.2,29.80,North,351,5.8,7.4,97,0.00,,---,0.00,VWS V14.01,2013-01-24 09:49:00,
2013-01-24 10:54:00,28.9,28.2,29.80,NW,305,4.9,5.8,97,0.00,,---,0.00,VWS V14.01,2013-01-24 09:54:00,
2013-01-24 10:59:00,29.1,28.4,29.80,NNW,330,0.0,5.8,97,0.00,,---,0.00,VWS V14.01,2013-01-24 09:59:00,
2013-01-24 11:04:00,29.1,28.4,29.80,NNW,327,4.5,5.4,97,0.00,,---,0.00,VWS V14.01,2013-01-24 10:04:00,
2013-01-24 11:09:00,29.1,28.4,29.80,North,351,4.0,7.4,97,0.00,,---,0.00,VWS V14.01,2013-01-24 10:09:00,
2013-01-24 11:14:00,29.1,28.4,29.80,NNW,334,6.3,8.7,97,0.00,,---,0.00,VWS V14.01,2013-01-24 10:14:00,
2013-01-24 11:19:00,29.1,28.4,29.80,NNW,342,6.7,6.7,97,0.00,,---,0.00,VWS V14.01,2013-01-24 10:19:00,
2013-01-24 11:24:00,29.1,28.4,29.80,NNW,331,3.6,5.4,97,0.00,,---,0.00,VWS V14.01,2013-01-24 10:24:00,
2013-01-24 11:29:00,29.1,28.4,29.80,North,356,3.6,6.7,97,0.00,,---,0.00,VWS V14.01,2013-01-24 10:29:00,
2013-01-24 11:35:00,29.1,28.4,29.80,NW,326,3.6,4.5,97,0.00,,---,0.00,VWS V14.01,2013-01-24 10:35:00,
2013-01-24 11:40:00,29.1,28.4,29.80,NNW,339,4.9,6.3,97,0.00,,---,0.00,VWS V14.01,2013-01-24 10:40:00,
2013-01-24 11:45:00,29.1,28.4,29.80,WNW,301,5.8,5.8,97,0.00,,---,0.00,VWS V14.01,2013-01-24 10:45:00,
2013-01-24 11:50:00,29.3,28.6,29.80,WNW,300,4.9,5.8,97,0.00,,---,0.00,VWS V14.01,2013-01-24 10:50:00,
2013-01-24 11:55:00,29.3,28.6,29.77,NNW,327,4.5,6.7,97,0.00,,---,0.00,VWS V14.01,2013-01-24 10:55:00,
2013-01-24 12:00:00,29.3,28.6,29.77,NNW,340,0.0,4.9,97,0.00,,---,0.00,VWS V14.01,2013-01-24 11:00:00,
2013-01-24 12:05:00,29.3,28.6,29.77,NNW,344,6.7,8.7,97,0.00,,---,0.00,VWS V14.01,2013-01-24 11:05:00,
2013-01-24 12:10:00,29.3,28.6,29.77,North,351,7.4,7.4,97,0.00,,---,0.00,VWS V14.01,2013-01-24 11:10:00,
2013-01-24 12:15:00,29.3,28.6,29.77,NNW,341,6.3,6.3,97,0.00,,---,0.00,VWS V14.01,2013-01-24 11:15:00,
2013-01-24 12:20:00,29.3,28.6,29.77,NNW,338,2.7,6.3,97,0.00,,---,0.00,VWS V14.01,2013-01-24 11:20:00,
2013-01-24 12:25:00,29.5,28.7,29.77,NNW,343,4.0,5.4,97,0.00,,---,0.00,VWS V14.01,2013-01-24 11:25:00,
2013-01-24 12:30:00,29.5,28.7,29.77,North,351,3.6,8.3,97,0.00,,---,0.00,VWS V14.01,2013-01-24 11:30:00,
2013-01-24 12:35:00,29.7,28.9,29.77,NNW,337,4.9,6.7,97,0.00,,---,0.00,VWS V14.01,2013-01-24 11:35:00,
2013-01-24 12:40:00,29.7,28.9,29.77,NW,312,2.7,4.9,97,0.00,,---,0.00,VWS V14.01,2013-01-24 11:40:00,
2013-01-24 12:45:00,29.8,29.1,29.77,North,351,7.4,7.8,97,0.00,,---,0.00,VWS V14.01,2013-01-24 11:45:00,
2013-01-24 12:50:00,29.7,28.9,29.77,NNW,327,4.9,7.4,97,0.00,,---,0.00,VWS V14.01,2013-01-24 11:50:00,
2013-01-24 12:55:00,30.0,29.3,29.74,WNW,286,7.4,8.3,97,0.00,,---,0.00,VWS V14.01,2013-01-24 11:55:00,
2013-01-24 13:00:00,30.4,29.6,29.74,North,351,5.4,6.9,97,0.00,,---,0.00,VWS V14.01,2013-01-24 12:00:00,
2013-01-24 13:05:00,30.2,29.5,29.74,North,351,5.8,6.9,97,0.00,,---,0.00,VWS V14.01,2013-01-24 12:05:00,
2013-01-24 13:10:00,30.4,29.6,29.74,SSW,203,5.8,8.3,97,0.00,,---,0.00,VWS V14.01,2013-01-24 12:10:00,
2013-01-24 13:15:00,30.4,29.6,29.74,NNW,338,4.5,6.7,97,0.00,,---,0.00,VWS V14.01,2013-01-24 12:15:00,
2013-01-24 13:20:00,30.4,29.6,29.74,NW,315,5.8,6.3,97,0.00,,---,0.00,VWS V14.01,2013-01-24 12:20:00,
2013-01-24 13:25:00,30.6,29.8,29.74,WNW,300,3.1,7.8,97,0.00,,---,0.00,VWS V14.01,2013-01-24 12:25:00,
2013-01-24 13:30:00,30.6,29.8,29.74,NNW,347,5.8,7.4,97,0.00,,---,0.00,VWS V14.01,2013-01-24 12:30:00,
2013-01-24 13:35:00,30.7,30.0,29.74,North,356,4.9,6.9,97,0.00,,---,0.00,VWS V14.01,2013-01-24 12:35:00,
2013-01-24 13:40:00,30.9,30.2,29.74,WNW,293,4.9,7.4,97,0.00,,---,0.00,VWS V14.01,2013-01-24 12:40:00,
2013-01-24 13:45:00,30.9,30.2,29.74,NNW,347,0.0,6.9,97,0.00,,---,0.00,VWS V14.01,2013-01-24 12:45:00,
2013-01-24 13:50:00,30.9,30.2,29.74,North,8,5.8,5.8,97,0.00,,---,0.00,VWS V14.01,2013-01-24 12:50:00,
2013-01-24 13:55:00,30.9,30.2,29.74,North,6,6.9,7.8,97,0.00,,---,0.00,VWS V14.01,2013-01-24 12:55:00,
2013-01-24 14:00:00,31.1,30.4,29.74,NNW,345,6.3,7.4,97,0.00,,---,0.00,VWS V14.01,2013-01-24 13:00:00,
2013-01-24 14:05:00,31.1,30.4,29.74,NNW,347,4.5,5.8,97,0.00,,---,0.00,VWS V14.01,2013-01-24 13:05:00,
2013-01-24 14:10:00,31.3,30.5,29.74,North,356,5.8,6.9,97,0.00,,---,0.00,VWS V14.01,2013-01-24 13:10:00,
2013-01-24 14:15:00,31.3,30.5,29.74,North,2,5.4,8.3,97,0.00,,---,0.00,VWS V14.01,2013-01-24 13:15:00,
2013-01-24 14:20:00,31.5,30.7,29.74,NNW,337,4.5,5.8,97,0.00,,---,0.00,VWS V14.01,2013-01-24 13:20:00,
2013-01-24 14:25:00,31.5,30.7,29.74,NNW,344,4.5,7.8,97,0.00,,---,0.00,VWS V14.01,2013-01-24 13:25:00,
2013-01-24 14:30:00,31.6,30.9,29.74,NNW,346,6.3,6.7,97,0.00,,---,0.00,VWS V14.01,2013-01-24 13:30:00,
2013-01-24 14:35:00,31.6,30.9,29.74,NNW,327,5.8,8.3,97,0.00,,---,0.00,VWS V14.01,2013-01-24 13:35:00,
2013-01-24 14:40:00,31.8,31.1,29.71,NNW,332,4.0,6.3,97,0.00,,---,0.00,VWS V14.01,2013-01-24 13:40:00,
2013-01-24 14:45:00,32.0,31.2,29.71,NNW,332,4.0,8.3,97,0.00,,---,0.00,VWS V14.01,2013-01-24 13:45:00,
2013-01-24 14:50:00,32.2,31.4,29.71,WNW,283,7.4,8.7,97,0.00,,---,0.00,VWS V14.01,2013-01-24 13:50:00,
2013-01-24 14:55:00,32.4,31.6,29.71,NW,320,6.3,10.5,97,0.00,,---,0.00,VWS V14.01,2013-01-24 13:55:00,
2013-01-24 15:00:00,32.2,31.4,29.71,NNW,341,5.4,8.3,97,0.00,,---,0.00,VWS V14.01,2013-01-24 14:00:00,
2013-01-24 15:05:00,32.2,31.2,29.71,NW,305,6.7,8.7,96,0.00,,---,0.00,VWS V14.01,2013-01-24 14:05:00,
2013-01-24 15:10:00,32.0,30.5,29.71,NNW,332,6.7,9.6,94,0.00,,---,0.00,VWS V14.01,2013-01-24 14:10:00,
2013-01-24 15:15:00,31.8,29.8,29.71,NNW,341,7.4,9.2,92,0.00,,---,0.00,VWS V14.01,2013-01-24 14:15:00,
2013-01-24 15:20:00,31.8,29.8,29.71,NW,307,3.1,6.7,92,0.00,,---,0.00,VWS V14.01,2013-01-24 14:20:00,
2013-01-24 15:25:00,31.6,29.3,29.74,NNW,340,4.9,8.7,91,0.00,,---,0.00,VWS V14.01,2013-01-24 14:25:00,
2013-01-24 15:30:00,31.6,29.3,29.74,NNW,339,3.6,6.3,91,0.00,,---,0.00,VWS V14.01,2013-01-24 14:30:00,
2013-01-24 15:35:00,31.6,29.3,29.74,NNW,329,4.9,7.4,91,0.00,,---,0.00,VWS V14.01,2013-01-24 14:35:00,
2013-01-24 15:40:00,31.5,28.9,29.74,North,351,6.7,7.4,90,0.00,,---,0.00,VWS V14.01,2013-01-24 14:40:00,
2013-01-24 15:45:00,31.5,28.6,29.74,NNW,343,4.0,7.4,89,0.00,,---,0.00,VWS V14.01,2013-01-24 14:45:00,
2013-01-24 15:50:00,31.5,28.6,29.74,NNW,339,6.7,6.7,89,0.00,,---,0.00,VWS V14.01,2013-01-24 14:50:00,
2013-01-24 15:55:00,31.5,28.6,29.74,NW,307,3.1,5.8,89,0.00,,---,0.00,VWS V14.01,2013-01-24 14:55:00,
2013-01-24 16:00:00,31.5,28.6,29.74,WNW,293,4.0,4.5,89,0.00,,---,0.00,VWS V14.01,2013-01-24 15:00:00,
2013-01-24 16:05:00,31.6,28.8,29.74,North,351,0.0,4.0,89,0.00,,---,0.00,VWS V14.01,2013-01-24 15:05:00,
2013-01-24 16:10:00,31.6,28.8,29.74,NW,315,4.9,4.9,89,0.00,,---,0.00,VWS V14.01,2013-01-24 15:10:00,
2013-01-24 16:15:00,31.6,28.8,29.74,NNW,343,3.6,4.9,89,0.00,,---,0.00,VWS V14.01,2013-01-24 15:15:00,
2013-01-24 16:20:00,31.6,28.8,29.74,NNW,327,5.8,5.8,89,0.00,,---,0.00,VWS V14.01,2013-01-24 15:20:00,
2013-01-24 16:25:00,31.6,28.8,29.74,NW,324,5.4,7.8,89,0.00,,---,0.00,VWS V14.01,2013-01-24 15:25:00,
2013-01-24 16:30:00,31.8,29.0,29.74,WNW,295,8.7,8.7,89,0.00,,---,0.00,VWS V14.01,2013-01-24 15:30:00,
2013-01-24 16:35:00,31.6,28.5,29.74,North,351,4.0,4.9,88,0.00,,---,0.00,VWS V14.01,2013-01-24 15:35:00,
2013-01-24 16:40:00,31.6,28.5,29.74,NNW,332,6.3,6.9,88,0.00,,---,0.00,VWS V14.01,2013-01-24 15:40:00,
2013-01-24 16:45:00,31.6,28.2,29.74,SSE,157,6.7,6.7,87,0.00,,---,0.00,VWS V14.01,2013-01-24 15:45:00,
2013-01-24 16:50:00,31.6,28.2,29.74,NNW,343,4.0,4.0,87,0.00,,---,0.00,VWS V14.01,2013-01-24 15:50:00,
2013-01-24 16:55:00,31.5,28.0,29.74,NW,305,6.3,6.3,87,0.00,,---,0.00,VWS V14.01,2013-01-24 15:55:00,
2013-01-24 17:00:00,31.3,27.6,29.74,NW,323,6.7,7.8,86,0.00,,---,0.00,VWS V14.01,2013-01-24 16:00:00,
2013-01-24 17:05:00,31.3,27.6,29.74,North,351,4.9,4.9,86,0.00,,---,0.00,VWS V14.01,2013-01-24 16:05:00,
2013-01-24 17:10:00,31.3,27.6,29.74,North,351,5.4,6.7,86,0.00,,---,0.00,VWS V14.01,2013-01-24 16:10:00,
2013-01-24 17:15:00,31.1,27.4,29.74,NNW,339,5.4,7.4,86,0.00,,---,0.00,VWS V14.01,2013-01-24 16:15:00,
2013-01-24 17:20:00,31.1,27.4,29.74,NW,321,5.8,5.8,86,0.00,,---,0.00,VWS V14.01,2013-01-24 16:20:00,
2013-01-24 17:25:00,31.1,27.7,29.74,North,6,3.6,4.0,87,0.00,,---,0.00,VWS V14.01,2013-01-24 16:25:00,
2013-01-24 17:30:00,31.1,27.7,29.74,North,351,4.5,5.8,87,0.00,,---,0.00,VWS V14.01,2013-01-24 16:30:00,
2013-01-24 17:35:00,30.9,27.5,29.74,North,356,4.5,6.3,87,0.00,,---,0.00,VWS V14.01,2013-01-24 16:35:00,
2013-01-24 17:40:00,30.9,27.5,29.74,North,351,6.3,6.3,87,0.00,,---,0.00,VWS V14.01,2013-01-24 16:40:00,
2013-01-24 17:45:00,30.9,27.5,29.74,WNW,300,6.3,6.3,87,0.00,,---,0.00,VWS V14.01,2013-01-24 16:45:00,
2013-01-24 17:50:00,30.7,27.1,29.74,North,351,4.9,5.8,86,0.00,,---,0.00,VWS V14.01,2013-01-24 16:50:00,
2013-01-24 17:55:00,30.6,26.9,29.74,NNW,339,5.8,6.9,86,0.00,,---,0.00,VWS V14.01,2013-01-24 16:55:00,
2013-01-24 18:00:00,30.6,26.9,29.74,North,351,6.3,6.9,86,0.00,,---,0.00,VWS V14.01,2013-01-24 17:00:00,
2013-01-24 18:05:00,30.6,26.9,29.74,North,351,5.4,6.3,86,0.00,,---,0.00,VWS V14.01,2013-01-24 17:05:00,
2013-01-24 18:10:00,30.6,26.9,29.74,North,5,6.7,6.7,86,0.00,,---,0.00,VWS V14.01,2013-01-24 17:10:00,
2013-01-24 18:15:00,30.6,26.9,29.74,North,1,4.9,6.9,86,0.00,,---,0.00,VWS V14.01,2013-01-24 17:15:00,
2013-01-24 18:20:00,30.4,26.4,29.74,NNW,341,6.3,6.3,85,0.00,,---,0.00,VWS V14.01,2013-01-24 17:20:00,
2013-01-24 18:25:00,30.4,26.4,29.71,North,5,6.3,6.3,85,0.00,,---,0.00,VWS V14.01,2013-01-24 17:25:00,
2013-01-24 18:30:00,30.4,26.4,29.71,NNW,335,4.9,6.3,85,0.00,,---,0.00,VWS V14.01,2013-01-24 17:30:00,
2013-01-24 18:35:00,30.4,26.4,29.71,North,356,4.0,6.9,85,0.00,,---,0.00,VWS V14.01,2013-01-24 17:35:00,
2013-01-24 18:40:00,30.4,26.4,29.74,NNW,340,4.5,5.8,85,0.00,,---,0.00,VWS V14.01,2013-01-24 17:40:00,
2013-01-24 18:45:00,30.4,26.4,29.74,North,351,6.3,6.3,85,0.00,,---,0.00,VWS V14.01,2013-01-24 17:45:00,
2013-01-24 18:50:00,30.4,26.1,29.74,North,351,4.0,7.4,84,0.00,,---,0.00,VWS V14.01,2013-01-24 17:50:00,
2013-01-24 18:55:00,30.4,26.1,29.71,NNW,333,6.3,6.7,84,0.00,,---,0.00,VWS V14.01,2013-01-24 17:55:00,
2013-01-24 19:00:00,30.6,26.3,29.71,North,351,4.9,5.8,84,0.00,,---,0.00,VWS V14.01,2013-01-24 18:00:00,
2013-01-24 19:05:00,30.6,26.3,29.71,NW,323,6.9,6.9,84,0.00,,---,0.00,VWS V14.01,2013-01-24 18:05:00,
2013-01-24 19:10:00,30.6,26.0,29.71,NNW,343,6.9,8.3,83,0.00,,---,0.00,VWS V14.01,2013-01-24 18:10:00,
2013-01-24 19:15:00,30.6,25.7,29.71,NNW,338,5.8,6.7,82,0.00,,---,0.00,VWS V14.01,2013-01-24 18:15:00,
2013-01-24 19:20:00,30.6,25.7,29.71,North,351,4.5,6.9,82,0.00,,---,0.00,VWS V14.01,2013-01-24 18:20:00,
2013-01-24 19:25:00,30.6,25.7,29.71,WNW,297,4.9,7.8,82,0.00,,---,0.00,VWS V14.01,2013-01-24 18:25:00,
2013-01-24 19:30:00,30.7,25.6,29.71,NW,309,4.0,7.8,81,0.00,,---,0.00,VWS V14.01,2013-01-24 18:30:00,
2013-01-24 19:35:00,30.7,25.6,29.71,WNW,301,8.3,11.6,81,0.00,,---,0.00,VWS V14.01,2013-01-24 18:35:00,
2013-01-24 19:40:00,30.7,25.6,29.71,North,356,6.3,10.1,81,0.00,,---,0.00,VWS V14.01,2013-01-24 18:40:00,
2013-01-24 19:45:00,30.7,25.3,29.71,WNW,290,8.7,10.1,80,0.00,,---,0.00,VWS V14.01,2013-01-24 18:45:00,
2013-01-24 19:50:00,30.7,25.3,29.71,NNW,341,6.3,10.1,80,0.00,,---,0.00,VWS V14.01,2013-01-24 18:50:00,
2013-01-24 19:55:00,30.7,25.3,29.71,North,351,5.4,8.7,80,0.00,,---,0.00,VWS V14.01,2013-01-24 18:55:00,
2013-01-24 20:00:00,30.6,25.1,29.71,NNW,331,3.6,6.9,80,0.00,,---,0.00,VWS V14.01,2013-01-24 19:00:00,
2013-01-24 20:05:00,30.6,25.1,29.71,North,351,4.5,7.8,80,0.00,,---,0.00,VWS V14.01,2013-01-24 19:05:00,
2013-01-24 20:10:00,30.4,25.0,29.71,NNW,335,5.4,6.9,80,0.00,,---,0.00,VWS V14.01,2013-01-24 19:10:00,
2013-01-24 20:15:00,30.4,25.0,29.71,North,351,4.9,9.2,80,0.00,,---,0.00,VWS V14.01,2013-01-24 19:15:00,
2013-01-24 20:20:00,30.4,25.0,29.71,NNW,343,4.9,6.3,80,0.00,,---,0.00,VWS V14.01,2013-01-24 19:20:00,
2013-01-24 20:25:00,30.4,25.0,29.71,NNW,333,5.4,6.9,80,0.00,,---,0.00,VWS V14.01,2013-01-24 19:25:00,
2013-01-24 20:30:00,30.4,25.0,29.71,NNW,336,4.9,6.9,80,0.00,,---,0.00,VWS V14.01,2013-01-24 19:30:00,
2013-01-24 20:35:00,30.4,25.0,29.71,NNW,329,4.5,5.4,80,0.00,,---,0.00,VWS V14.01,2013-01-24 19:35:00,
2013-01-24 20:40:00,30.4,25.0,29.71,WNW,298,6.3,6.3,80,0.00,,---,0.00,VWS V14.01,2013-01-24 19:40:00,
2013-01-24 20:45:00,30.4,25.0,29.71,West,271,4.0,9.2,80,0.00,,---,0.00,VWS V14.01,2013-01-24 19:45:00,
2013-01-24 20:50:00,30.4,25.0,29.71,NNW,340,5.4,5.4,80,0.00,,---,0.00,VWS V14.01,2013-01-24 19:50:00,
2013-01-24 20:55:00,30.4,25.0,29.74,NNW,339,4.9,5.4,80,0.00,,---,0.00,VWS V14.01,2013-01-24 19:55:00,
2013-01-24 21:00:00,30.4,25.0,29.74,WNW,287,4.5,5.8,80,0.00,,---,0.00,VWS V14.01,2013-01-24 20:00:00,
2013-01-24 21:05:00,30.4,25.0,29.74,NNW,333,4.5,6.7,80,0.00,,---,0.00,VWS V14.01,2013-01-24 20:05:00,
2013-01-24 21:11:00,30.4,25.0,29.74,NNW,327,4.9,7.8,80,0.00,,---,0.00,VWS V14.01,2013-01-24 20:11:00,
2013-01-24 21:16:00,30.4,25.0,29.74,WNW,295,4.5,6.9,80,0.00,,---,0.00,VWS V14.01,2013-01-24 20:16:00,
2013-01-24 21:21:00,30.4,25.0,29.74,WNW,299,5.8,7.4,80,0.00,,---,0.00,VWS V14.01,2013-01-24 20:21:00,
2013-01-24 21:26:00,30.4,25.0,29.74,WNW,300,6.3,7.4,80,0.00,,---,0.00,VWS V14.01,2013-01-24 20:26:00,
2013-01-24 21:31:00,30.4,25.0,29.74,WNW,293,4.0,6.9,80,0.00,,---,0.00,VWS V14.01,2013-01-24 20:31:00,
2013-01-24 21:36:00,30.2,24.5,29.74,WNW,300,5.4,6.7,79,0.00,,---,0.00,VWS V14.01,2013-01-24 20:36:00,
2013-01-24 21:41:00,30.4,24.7,29.74,WNW,290,4.9,5.4,79,0.00,,---,0.00,VWS V14.01,2013-01-24 20:41:00,
2013-01-24 21:46:00,30.2,24.5,29.74,NNW,347,5.8,6.3,79,0.00,,---,0.00,VWS V14.01,2013-01-24 20:46:00,
2013-01-24 21:51:00,30.2,24.5,29.74,North,351,6.7,8.7,79,0.00,,---,0.00,VWS V14.01,2013-01-24 20:51:00,
2013-01-24 21:56:00,30.2,24.5,29.74,North,351,4.0,6.9,79,0.00,,---,0.00,VWS V14.01,2013-01-24 20:56:00,
2013-01-24 22:01:00,30.2,24.5,29.74,WNW,294,6.9,6.9,79,0.00,,---,0.00,VWS V14.01,2013-01-24 21:01:00,
2013-01-24 22:06:00,30.2,24.5,29.74,WNW,282,7.4,8.3,79,0.00,,---,0.00,VWS V14.01,2013-01-24 21:06:00,
2013-01-24 22:11:00,30.2,24.5,29.74,NW,325,6.3,7.4,79,0.00,,---,0.00,VWS V14.01,2013-01-24 21:11:00,
2013-01-24 22:16:00,30.2,24.5,29.74,NW,314,4.0,6.3,79,0.00,,---,0.00,VWS V14.01,2013-01-24 21:16:00,
2013-01-24 22:21:00,30.2,24.2,29.74,NW,320,3.6,6.3,78,0.00,,---,0.00,VWS V14.01,2013-01-24 21:21:00,
2013-01-24 22:26:00,30.2,24.2,29.71,NNW,344,3.1,6.3,78,0.00,,---,0.00,VWS V14.01,2013-01-24 21:26:00,
2013-01-24 22:31:00,30.2,24.2,29.71,West,278,7.4,7.8,78,0.00,,---,0.00,VWS V14.01,2013-01-24 21:31:00,
2013-01-24 22:36:00,30.2,24.2,29.71,NNW,329,4.9,7.8,78,0.00,,---,0.00,VWS V14.01,2013-01-24 21:36:00,
2013-01-24 22:41:00,30.2,24.2,29.74,WNW,289,4.5,7.4,78,0.00,,---,0.00,VWS V14.01,2013-01-24 21:41:00,
2013-01-24 22:46:00,30.2,24.2,29.74,NNW,338,5.4,6.3,78,0.00,,---,0.00,VWS V14.01,2013-01-24 21:46:00,
2013-01-24 22:51:00,30.4,24.4,29.74,WNW,298,3.6,7.4,78,0.00,,---,0.00,VWS V14.01,2013-01-24 21:51:00,
2013-01-24 22:56:00,30.4,24.4,29.74,NNW,339,4.5,6.3,78,0.00,,---,0.00,VWS V14.01,2013-01-24 21:56:00,
2013-01-24 23:01:00,30.4,24.0,29.74,West,279,4.0,7.8,77,0.00,,---,0.00,VWS V14.01,2013-01-24 22:01:00,
2013-01-24 23:06:00,30.6,24.2,29.74,NW,324,4.0,6.7,77,0.00,,---,0.00,VWS V14.01,2013-01-24 22:06:00,
2013-01-24 23:11:00,30.7,24.4,29.74,WNW,297,2.7,7.8,77,0.00,,---,0.00,VWS V14.01,2013-01-24 22:11:00,
2013-01-24 23:16:00,30.7,24.1,29.74,WNW,294,7.8,7.8,76,0.00,,---,0.00,VWS V14.01,2013-01-24 22:16:00,
2013-01-24 23:21:00,30.9,24.3,29.74,NNW,336,4.5,7.8,76,0.00,,---,0.00,VWS V14.01,2013-01-24 22:21:00,
2013-01-24 23:26:00,30.9,23.9,29.74,NW,323,4.0,8.7,75,0.00,,---,0.00,VWS V14.01,2013-01-24 22:26:00,
2013-01-24 23:31:00,30.9,23.9,29.74,West,279,8.3,8.3,75,0.00,,---,0.00,VWS V14.01,2013-01-24 22:31:00,
2013-01-24 23:36:00,30.9,23.6,29.74,NW,319,4.5,6.9,74,0.00,,---,0.00,VWS V14.01,2013-01-24 22:36:00,
2013-01-24 23:41:00,30.9,23.6,29.74,NW,318,5.8,6.7,74,0.00,,---,0.00,VWS V14.01,2013-01-24 22:41:00,
2013-01-24 23:46:00,30.9,23.3,29.74,NW,326,4.0,6.3,73,0.00,,---,0.00,VWS V14.01,2013-01-24 22:46:00,
2013-01-24 23:51:00,30.7,23.1,29.74,NW,322,5.4,6.9,73,0.00,,---,0.00,VWS V14.01,2013-01-24 22:51:00,
2013-01-24 23:56:00,30.7,23.1,29.74,NW,307,6.9,8.3,73,0.00,,---,0.00,VWS V14.01,2013-01-24 22:56:00,